createdAt,value
2017-09-27T00:03:48.890Z,1019.4
2017-09-27T00:14:03.069Z,1019.4
2017-09-27T00:24:17.317Z,1019.3
2017-09-27T00:34:31.321Z,1019.3
2017-09-27T00:44:44.900Z,1019.2
2017-09-27T00:54:58.878Z,1019.2
2017-09-27T01:05:13.338Z,1019.2
2017-09-27T01:15:27.585Z,1019.1
2017-09-27T01:25:41.779Z,1019.1
2017-09-27T01:35:55.914Z,1019.1
2017-09-27T01:46:10.076Z,1019.0
2017-09-27T01:56:21.344Z,1019.0
2017-09-27T02:07:05.116Z,1019.0
2017-09-27T02:17:16.402Z,1019.0
2017-09-27T02:28:00.595Z,1019.0
2017-09-27T02:38:44.911Z,1019.0
2017-09-27T02:48:59.100Z,1019.0
2017-09-27T02:59:13.405Z,1019.0
2017-09-27T03:09:27.400Z,1019.2
2017-09-27T03:19:41.710Z,1019.2
2017-09-27T03:29:56.214Z,1019.1
2017-09-27T03:40:10.597Z,1019.2
2017-09-27T03:50:24.260Z,1019.2
2017-09-27T04:00:38.709Z,1019.2
2017-09-27T04:10:53.180Z,1019.2
2017-09-27T04:21:37.605Z,1019.1
2017-09-27T04:31:51.690Z,1019.2
2017-09-27T04:42:05.793Z,1019.2
2017-09-27T04:52:20.532Z,1019.1
2017-09-27T05:02:34.254Z,1019.1
2017-09-27T05:12:47.544Z,1019.1
2017-09-27T05:23:01.896Z,1019.2
2017-09-27T05:33:16.028Z,1019.3
2017-09-27T05:43:30.485Z,1019.3
2017-09-27T05:54:15.041Z,1019.3
2017-09-27T06:04:29.228Z,1019.3
2017-09-27T06:14:43.698Z,1019.4
2017-09-27T06:24:57.820Z,1019.5
2017-09-27T06:35:08.974Z,1019.6
2017-09-27T06:45:23.117Z,1019.6
2017-09-27T06:55:36.681Z,1019.6
2017-09-27T07:05:50.667Z,1019.5
2017-09-27T07:16:04.785Z,1019.6
2017-09-27T07:26:19.257Z,1019.7
2017-09-27T07:36:33.275Z,1019.7
2017-09-27T07:46:47.769Z,1019.8
2017-09-27T07:57:00.022Z,1019.8
2017-09-27T08:07:14.054Z,1019.8
2017-09-27T08:17:29.019Z,1020.0
2017-09-27T08:27:42.471Z,1019.9
2017-09-27T08:37:56.702Z,1020.1
2017-09-27T08:48:11.204Z,1020.2
2017-09-27T08:58:25.115Z,1020.1
2017-09-27T09:08:39.629Z,1020.0
2017-09-27T09:18:51.525Z,1020.0
2017-09-27T09:29:35.624Z,1019.9
2017-09-27T09:40:25.271Z,1020.0
2017-09-27T09:50:39.483Z,1019.8
2017-09-27T10:00:51.290Z,1019.9
2017-09-27T10:11:35.517Z,1019.8
2017-09-27T10:21:49.603Z,1019.6
2017-09-27T10:32:02.802Z,1019.6
2017-09-27T10:42:15.715Z,1019.4
2017-09-27T10:52:29.797Z,1019.2
2017-09-27T11:02:43.620Z,1019.0
2017-09-27T11:12:57.715Z,1018.9
2017-09-27T11:24:19.010Z,1018.8
2017-09-27T11:35:04.058Z,1018.7
2017-09-27T11:45:48.546Z,1018.6
2017-09-27T11:56:02.066Z,1018.7
2017-09-27T12:06:52.275Z,1018.6
2017-09-27T12:17:07.540Z,1018.6
2017-09-27T12:27:22.776Z,1018.6
2017-09-27T12:37:40.391Z,1018.6
2017-09-27T12:48:24.230Z,1018.6
2017-09-27T12:58:40.485Z,1018.7
2017-09-27T13:08:54.621Z,1018.4
2017-09-27T13:19:09.624Z,1017.8
2017-09-27T13:29:23.631Z,1018.4
2017-09-27T13:39:41.226Z,1017.7
2017-09-27T13:49:58.272Z,1018.2
2017-09-27T14:00:47.880Z,1017.7
2017-09-27T14:11:34.026Z,1018.1
2017-09-27T14:21:48.454Z,1018.0
2017-09-27T14:32:06.655Z,1017.6
2017-09-27T14:42:22.380Z,1018.2
2017-09-27T14:52:40.611Z,1019.8
2017-09-27T15:03:26.957Z,1017.6
2017-09-27T15:13:41.555Z,1017.9
2017-09-27T15:23:54.994Z,1017.6
2017-09-27T15:34:09.391Z,1017.6
2017-09-27T15:44:23.698Z,1017.6
2017-09-27T15:54:37.621Z,1017.7
2017-09-27T16:05:23.451Z,1017.7
2017-09-27T16:16:08.048Z,1017.8
2017-09-27T16:26:22.137Z,1017.9
2017-09-27T16:37:07.084Z,1018.1
2017-09-27T16:47:18.560Z,1018.1
2017-09-27T16:57:36.192Z,1018.1
2017-09-27T17:07:49.699Z,1018.2
2017-09-27T17:18:10.529Z,1018.3
2017-09-27T17:28:25.056Z,1018.3
2017-09-27T17:38:38.615Z,1018.4
2017-09-27T17:48:59.801Z,1018.4
2017-09-27T17:59:14.273Z,1018.4
2017-09-27T18:09:29.208Z,1018.5
2017-09-27T18:19:44.195Z,1018.5
2017-09-27T18:29:59.747Z,1018.6
2017-09-27T18:40:44.806Z,1018.7
2017-09-27T18:51:00.846Z,1018.8
2017-09-27T19:01:18.365Z,1018.8
2017-09-27T19:11:36.014Z,1018.9
2017-09-27T19:21:51.947Z,1018.9
2017-09-27T19:32:05.781Z,1018.9
2017-09-27T19:42:20.777Z,1018.8
2017-09-27T19:52:36.086Z,1018.8
2017-09-27T20:03:21.449Z,1018.8
2017-09-27T20:14:06.218Z,1018.8
2017-09-27T20:24:23.804Z,1018.8
2017-09-27T20:34:38.664Z,1018.7
2017-09-27T20:44:49.787Z,1018.7
2017-09-27T20:55:03.234Z,1018.8
2017-09-27T21:05:48.051Z,1018.8
2017-09-27T21:16:32.909Z,1018.7
2017-09-27T21:27:21.864Z,1018.7
2017-09-27T21:37:35.901Z,1018.7
2017-09-27T21:47:49.730Z,1018.5
2017-09-27T21:58:08.383Z,1018.4
2017-09-27T22:08:22.306Z,1018.4
2017-09-27T22:18:36.363Z,1018.4
2017-09-27T22:28:52.500Z,1018.5
2017-09-27T22:39:10.753Z,1018.5
2017-09-27T22:49:28.928Z,1018.5
2017-09-27T22:59:43.773Z,1018.5
2017-09-27T23:10:28.177Z,1018.6
2017-09-27T23:21:12.920Z,1018.5
2017-09-27T23:31:57.424Z,1018.3
2017-09-27T23:42:11.555Z,1018.4
2017-09-27T23:52:25.927Z,1018.4
